Aérodrome :
LOGIN :

S'inscrire | Disclaimer

   EN    FR    IT 

 










Légende :    VFR   VFR Marginal   IFR   IFR Intensif   IFR Très Intensif
Visi : 
Plafond : 
>= 8 km
>= 3000ft
5 à 8 km
1000 à 3000 ft
1500m à 5 km
500 à 1000 ft
800 à 1500m
200 à 500 ft
< 800m
< 200 ft
Symboles :   Orages  Brouillard  Fortes neiges  Fortes précipitations  Vent > 20 kt
SIGMETs :   Divers  Orages  Givrage  Turbulence  Onde Orograph.  Cendres Volcan.







- Altitude de l'aérodrome : 364 ft
- Voir les cartes d'approche


LFAQ - Albert Bray

DERNIER METAR :
  • 131630Z AUTO 20021KT 9999 BKN012 OVC041 08/07 Q0995 TEMPO 2000 SHRA BKN007 BKN013CB

METARs EXPIRÉS :
  • 131600Z AUTO 20019KT 9999 -RA BKN015/// BKN022/// OVC040/// ///TCU 08/07 Q0996 TEMPO 4000 RA OVC007
  • 131530Z AUTO 21017KT 9999 -RADZ SCT014 BKN021 BKN026 08/07 Q0997 TEMPO 4000 RA OVC007
  • 131500Z AUTO 21016KT 9999 -DZ BKN014 BKN020 OVC044 08/07 Q0998 TEMPO 4000 RA OVC007
  • 131430Z AUTO 21015KT 9999 BKN011/// OVC016/// ///TCU 08/07 Q0998 TEMPO 4000 RA OVC007
  • 131400Z AUTO 21015KT 9999 -DZ BKN009 BKN013 OVC027 08/07 Q0999 TEMPO 4000 RA OVC004

TAF TAF LFAQ
Valide du 13 à 15h jusqu'au 14 à 00h UTC


131400Z 1315/1324 21013KT 9999 BKN017
TEMPO 1315/1319 4000 RA OVC007
TEMPO 1318/1319 2000 SHRA BKN007 BKN013CB
PROB30
TEMPO 1318/1319 TSRA
FM131900 27020G30KT 9999 SCT030
BECMG 1319/1321 26012KT
TEMPO 1323/1324 24020G35KT 2000 SHRA BKN007 BKN013CB
PROB30
TEMPO 1323/1324 TSRA
Pas de NOTAMs connus pour ce terrain.
4 SIGMETs publiés pour la FIR Paris (LFFF) :
 
Turbulence forte
LFFF SIGMET 6 VALID 131700/132000 LFPW
LFFF PARIS FIR/UIR SEV TURB FCST S OF N4745 AND W OF E00300 SFC/FL050 MOV NE 40KT INTSF=
Annulation du SIGMET 4 
LFFF SIGMET 5 VALID 131600/132100 LFPW
LFFF PARIS FIR/UIR CNL SIGMET 4 131700/132100=
SIGMET 4  ANNULÉ :
Turbulence forte
LFFF SIGMET 4 VALID 131700/132100 LFPW
LFFF PARIS FIR/UIR SEV TURB FCST S OF N4745 AND W OF E00300 SFC/FL050 MOV NE 40KT INTSF=
Turbulence forte
LFFF SIGMET 3 VALID 131600/132000 LFPW
LFFF PARIS FIR/UIR SEV TURB FCST WI N4900 W00015 - N5000 W00015 - N5115 E00200 - N5100 E00215 - N5000 E00215 - N4900 W00015 SFC/FL050 MOV E 50KT NC=



MET'MAP, la Météo Aéronautique d'un coup d'oeil ! - Copyright ORBIFLY Décembre 2007 - Disclaimer

ORBIFLY MET'MAP TEAM :

Programmation & Développement : Alexandra Zaïnal
Conception & Développement : Baudouin d'Aumeries
Co-Programmation & Développement : Marc-Olivier Méhu
Soutien technique & logistique : Manuel Goepfert

Contact : metmap@orbifly.com




SOURCES & CREDITS :

   NOAA